Pagrindinis puslapis
METAR-TAF:

METAR-TAF

Oro uostai :

Ribeiran Pretas, San Paulas, Brazilija

platuma: 21-08S, ilguma: 047-47W, Aukštis: 549 m

Dabartinis oras

Ataskaita buvo paskelbta 8 minutes, ne 00:00 UTC
Vėjas 4 kt iš Šiaurės Rytų
Temperatūra 27°C
Drėgmė 62%
Slėgis 1014 hPa
Matomumas 10 km arba daugiau
Mažai debesys ne aukštis 4500 ft
Su prošvaistėmis ne aukštis 8000 ft

METAR: SBRP 050000Z 05004KT 9999 FEW045 BKN080 27/19 Q1014

Laikas: 21:08 (00:08 UTC)

Prognozė

Ataskaita buvo paskelbta 2 valandos ir 8 minutes, ne 22:00 UTC
Prognozė galioja nuo 05 metu 00 UTC su 05 metu 12 UTC
Vėjas 5 kt iš Šiaurės/Šiaurės Vakarų
Matomumas 10 km arba daugiau
Išsisklaidę debesys ne aukštis 3000 ft
Tapsmas
nuo 05 metu 00 UTC su 05 metu 02 UTC
Vėjas 7 kt iš Pietryčių
Mažai debesys ne aukštis 4000 ft
Tapsmas
nuo 05 metu 03 UTC su 05 metu 05 UTC
Matomumas 10 km arba daugiau
nėra debesų žemiau 1500 m ir nėra kamuolinių lietaus debesų

TAF: SBRP 042200Z 0500/0512 33005KT 9999 SCT030 TN21/0508Z TX28/0511Z BECMG 0500/0502 14007KT FEW040 BECMG 0503/0505 CAVOK RMK PHH

Orai ataskaitas ir orų prognozės (METAR, TAF).

turimą stotys yra geltonos ir raudonos taškus žemėlapyje.

Perkelti pele per norėdami pamatyti stoties vardą.

Tada spustelėkite, norėdami matyti oro stebėjimo ir prognozės.

Norėdami pakeisti žemėlapį: spustelėkite ant žalios mygtukų su juodo kryžiaus žemyn,; žalią mygtuką su brūkšneliu, jei norite nutolinti; arba žalių rodyklių gretimoms žemėlapius.


METAR-TAF: